Time;durP1;ratioP1;P1;durP2;ratioP2;P2;SDS_P1;SDS_P2;PMS_P1;PMS_P2;Temp;Humidity;BMP_temperature;BMP_pressure;BME280_temperature;BME280_humidity;BME280_pressure;Samples;Min_cycle;Max_cycle;Signal;HPM_P1;HPM_P2
2022/10/01 00:00:19;;;;;;;;;;;;;;;19.78;49.70;100294.47;5023826;28;19909;-56
2022/10/01 00:02:44;;;;;;;;;;;;;;;19.78;49.52;100294.47;5024011;28;19935;-55
2022/10/01 00:05:10;;;;;;;;;;;;;;;19.76;49.55;100291.97;5023890;28;20016;-55
2022/10/01 00:07:38;;;;;;;;;;;;;;;19.75;49.75;100281.34;5004371;28;19918;-57
2022/10/01 00:10:04;;;;;;;;;;;;;;;19.75;49.68;100275.94;5004360;28;19925;-56
2022/10/01 00:12:29;;;;;;;;;;;;;;;19.73;49.57;100263.50;5002917;28;19918;-55
2022/10/01 00:14:54;;;;;;;;;;;;;;;19.73;49.54;100263.50;5019870;28;19923;-54
2022/10/01 00:17:19;;;;;;;;;;;;;;;19.73;49.70;100239.22;5043668;28;19909;-56
2022/10/01 00:19:45;;;;;;;;;;;;;;;19.72;49.56;100239.44;5043506;28;20296;-54
2022/10/01 00:22:10;;;;;;;;;;;;;;;19.72;49.81;100236.72;5042305;28;20350;-56
2022/10/01 00:24:36;;;;;;;;;;;;;;;19.71;49.68;100227.81;5023534;28;19922;-53
2022/10/01 00:27:01;;;;;;;;;;;;;;;19.70;49.80;100231.50;5024170;28;19909;-54
2022/10/01 00:29:27;;;;;;;;;;;;;;;19.70;49.87;100222.59;5023114;28;19937;-56
2022/10/01 00:31:52;;;;;;;;;;;;;;;19.69;49.74;100215.53;5023789;28;19948;-56
2022/10/01 00:34:17;;;;;;;;;;;;;;;19.69;49.70;100212.81;5023587;28;19909;-55
2022/10/01 00:36:42;;;;;;;;;;;;;;;19.68;49.63;100203.06;5023838;28;20021;-56
2022/10/01 00:39:09;;;;;;;;;;;;;;;19.66;49.66;100197.84;5006265;28;19954;-52
2022/10/01 00:41:34;;;;;;;;;;;;;;;19.68;49.73;100197.69;5006347;28;19917;-55
2022/10/01 00:44:00;;;;;;;;;;;;;;;19.66;49.55;100184.38;5023496;28;19913;-56
2022/10/01 00:46:34;;;;;;;;;;;;;;;19.66;49.84;100178.97;5022996;28;20004;-54
2022/10/01 00:49:00;;;;;;;;;;;;;;;19.66;49.57;100175.44;5006042;28;19909;-56
2022/10/01 00:51:26;;;;;;;;;;;;;;;19.65;49.68;100168.38;5023631;28;19913;-55
2022/10/01 00:53:53;;;;;;;;;;;;;;;19.64;49.56;100172.13;5005967;28;19909;-55
2022/10/01 00:56:18;;;;;;;;;;;;;;;19.64;49.65;100164.03;5026870;28;19910;-57
2022/10/01 00:58:43;;;;;;;;;;;;;;;19.64;49.58;100158.63;5026678;28;19928;-54
2022/10/01 01:01:09;;;;;;;;;;;;;;;19.63;49.91;100152.41;5009197;28;19959;-53
2022/10/01 01:03:34;;;;;;;;;;;;;;;19.62;49.83;100145.31;5009358;28;19917;-56
2022/10/01 01:05:59;;;;;;;;;;;;;;;19.63;49.83;100132.69;5026709;28;20384;-50
2022/10/01 01:08:24;;;;;;;;;;;;;;;19.63;49.74;100124.63;5026840;28;19909;-56
2022/10/01 01:10:50;;;;;;;;;;;;;;;19.61;50.00;100127.47;5026783;28;19914;-54
2022/10/01 01:13:23;;;;;;;;;;;;;;;19.61;49.87;100103.22;5021434;28;19952;-56
2022/10/01 01:15:48;;;;;;;;;;;;;;;19.61;49.63;100078.13;4989392;28;19980;-54
2022/10/01 01:18:17;;;;;;;;;;;;;;;19.61;49.61;100080.81;5007130;28;20358;-51
2022/10/01 01:20:46;;;;;;;;;;;;;;;19.61;49.89;100064.63;4989657;28;19933;-53
2022/10/01 01:23:15;;;;;;;;;;;;;;;19.60;49.61;100065.63;4989562;28;19910;-53
2022/10/01 01:25:52;;;;;;;;;;;;;;;19.59;49.82;100059.41;5006889;28;19948;-54
2022/10/01 01:28:21;;;;;;;;;;;;;;;19.59;50.00;100051.31;5006611;28;19909;-54
2022/10/01 01:30:48;;;;;;;;;;;;;;;19.58;49.65;100046.97;4988332;28;19910;-53
2022/10/01 01:33:14;;;;;;;;;;;;;;;19.58;49.89;100055.06;5002598;28;19914;-56
2022/10/01 01:35:40;;;;;;;;;;;;;;;19.56;49.74;100040.09;5008738;28;19924;-53
2022/10/01 01:38:08;;;;;;;;;;;;;;;19.56;49.66;100034.69;5008839;28;20409;-55
2022/10/01 01:40:35;;;;;;;;;;;;;;;19.56;49.67;100035.53;5008783;28;19909;-55
2022/10/01 01:43:04;;;;;;;;;;;;;;;19.57;49.60;100047.13;5008954;28;19909;-55
2022/10/01 01:45:29;;;;;;;;;;;;;;;19.56;49.89;100042.78;5025695;28;19924;-56
2022/10/01 01:47:55;;;;;;;;;;;;;;;19.55;49.52;100047.34;5008559;28;19910;-54
2022/10/01 01:50:20;;;;;;;;;;;;;;;19.55;49.64;100036.56;5008420;28;19909;-54
2022/10/01 01:52:45;;;;;;;;;;;;;;;19.54;50.06;100028.66;5008810;28;19929;-53
2022/10/01 01:55:10;;;;;;;;;;;;;;;19.53;49.91;100030.50;5025888;28;19920;-52
2022/10/01 01:57:36;;;;;;;;;;;;;;;19.53;49.65;100025.13;5025793;28;19909;-55
2022/10/01 02:00:02;;;;;;;;;;;;;;;19.52;49.70;100034.25;5007788;28;20523;-54
2022/10/01 02:02:28;;;;;;;;;;;;;;;19.53;49.81;100025.13;5023302;28;19913;-55
2022/10/01 02:04:53;;;;;;;;;;;;;;;19.51;49.86;100024.50;5022938;28;19984;-53
2022/10/01 02:07:19;;;;;;;;;;;;;;;19.52;49.62;100017.22;5008324;28;19957;-54
2022/10/01 02:09:49;;;;;;;;;;;;;;;19.51;49.72;100008.31;5025781;28;20300;-54
2022/10/01 02:12:22;;;;;;;;;;;;;;;19.51;49.69;99996.69;5025646;28;19917;-53
2022/10/01 02:14:51;;;;;;;;;;;;;;;19.49;49.63;100013.88;5022050;28;19917;-52
2022/10/01 02:17:21;;;;;;;;;;;;;;;19.50;49.69;100033.63;5024392;28;19972;-52
2022/10/01 02:19:46;;;;;;;;;;;;;;;19.49;49.67;100040.84;5007918;28;20006;-54
2022/10/01 02:22:12;;;;;;;;;;;;;;;19.48;50.00;100028.41;5025718;28;19909;-56
2022/10/01 02:24:43;;;;;;;;;;;;;;;19.48;49.59;100041.88;5024247;28;20120;-56
2022/10/01 02:27:11;;;;;;;;;;;;;;;19.47;49.85;100026.75;5025307;28;19967;-56
2022/10/01 02:29:36;;;;;;;;;;;;;;;19.47;49.77;100005.16;5023860;28;19983;-53
2022/10/01 02:32:01;;;;;;;;;;;;;;;19.47;50.02;99990.84;5021874;28;19945;-56
2022/10/01 02:34:28;;;;;;;;;;;;;;;19.46;49.78;99976.53;5024955;28;20345;-53
2022/10/01 02:36:53;;;;;;;;;;;;;;;19.46;49.80;99978.41;5007596;28;19924;-56
2022/10/01 02:39:18;;;;;;;;;;;;;;;19.45;49.91;99980.28;5025239;28;19918;-54
2022/10/01 02:41:43;;;;;;;;;;;;;;;19.44;49.91;99970.50;5025273;28;20384;-51
2022/10/01 02:44:09;;;;;;;;;;;;;;;19.44;49.78;99973.19;5024928;28;19909;-52
2022/10/01 02:46:46;;;;;;;;;;;;;;;19.43;49.72;99976.94;5007236;28;19976;-54
2022/10/01 02:49:12;;;;;;;;;;;;;;;19.44;49.69;99975.06;5025021;28;19909;-54
2022/10/01 02:51:38;;;;;;;;;;;;;;;19.42;49.81;99971.75;5007655;28;19916;-55
2022/10/01 02:54:06;;;;;;;;;;;;;;;19.43;50.06;99963.44;5025077;28;19916;-52
2022/10/01 02:59:15;;;;;;;;;;;;;;;19.42;49.91;99960.97;5024443;28;19924;-52
2022/10/01 03:01:40;;;;;;;;;;;;;;;19.41;49.85;99960.13;5024331;28;19914;-54
2022/10/01 03:04:06;;;;;;;;;;;;;;;19.42;49.74;99960.97;5024499;28;19913;-54
2022/10/01 03:06:34;;;;;;;;;;;;;;;19.41;49.65;99954.75;5024578;28;19972;-53
2022/10/01 03:09:00;;;;;;;;;;;;;;;19.41;49.98;99951.19;5024753;28;19910;-54
2022/10/01 03:11:25;;;;;;;;;;;;;;;19.41;49.95;99952.03;5024920;28;19967;-50
2022/10/01 03:13:51;;;;;;;;;;;;;;;19.40;49.97;99941.44;5029791;28;19916;-55
2022/10/01 03:16:16;;;;;;;;;;;;;;;19.40;49.93;99936.03;5044017;28;19980;-54
2022/10/01 03:18:41;;;;;;;;;;;;;;;19.39;50.02;99937.91;5044075;28;19909;-53
2022/10/01 03:21:06;;;;;;;;;;;;;;;19.39;49.96;99934.38;5044358;28;19909;-54
2022/10/01 03:23:31;;;;;;;;;;;;;;;19.38;50.13;99932.72;5044414;28;20554;-54
2022/10/01 03:25:57;;;;;;;;;;;;;;;19.38;50.04;99927.34;5044073;28;20385;-55
2022/10/01 03:28:22;;;;;;;;;;;;;;;19.37;50.05;99923.81;5043886;28;19909;-55
2022/10/01 03:30:47;;;;;;;;;;;;;;;19.37;49.77;99923.81;5042499;28;19909;-51
2022/10/01 03:33:12;;;;;;;;;;;;;;;19.37;50.03;99918.41;5024256;28;20022;-51
2022/10/01 03:35:37;;;;;;;;;;;;;;;19.36;49.71;99916.72;5023887;28;19917;-52
2022/10/01 03:38:02;;;;;;;;;;;;;;;19.36;49.67;99918.59;5024352;28;19909;-53
2022/10/01 03:40:28;;;;;;;;;;;;;;;19.37;49.96;99914.88;5024321;28;19951;-51
2022/10/01 03:42:53;;;;;;;;;;;;;;;19.37;50.14;99917.56;5024082;28;19910;-52
2022/10/01 03:45:18;;;;;;;;;;;;;;;19.35;49.87;99911.53;5023751;28;19913;-53
2022/10/01 03:47:43;;;;;;;;;;;;;;;19.35;49.96;99903.47;5024361;28;19909;-53
2022/10/01 03:50:09;;;;;;;;;;;;;;;19.34;50.00;99899.09;5024184;28;19909;-52
2022/10/01 03:52:34;;;;;;;;;;;;;;;19.34;49.78;99910.72;5024510;28;19916;-51
2022/10/01 03:54:59;;;;;;;;;;;;;;;19.34;50.06;99909.88;5023912;28;20404;-52
2022/10/01 03:57:25;;;;;;;;;;;;;;;19.33;49.81;99910.94;5023937;28;19909;-52
2022/10/01 03:59:50;;;;;;;;;;;;;;;19.33;49.96;99902.84;5023728;28;19910;-53
2022/10/01 04:02:15;;;;;;;;;;;;;;;19.31;50.04;99900.31;5023724;28;19924;-51
2022/10/01 04:04:40;;;;;;;;;;;;;;;19.32;49.95;99888.50;5023716;28;19916;-51
2022/10/01 04:07:05;;;;;;;;;;;;;;;19.31;50.04;99903.00;5023709;28;19924;-50
2022/10/01 04:09:30;;;;;;;;;;;;;;;19.31;49.94;99899.50;5023941;28;19916;-53
2022/10/01 04:11:56;;;;;;;;;;;;;;;19.31;49.93;99888.72;5024038;28;20051;-54
2022/10/01 04:14:21;;;;;;;;;;;;;;;19.30;49.95;99885.19;5023704;28;19910;-55
2022/10/01 04:16:48;;;;;;;;;;;;;;;19.30;50.00;99890.56;5023569;28;19913;-51
2022/10/01 04:19:13;;;;;;;;;;;;;;;19.30;50.01;99892.44;5023968;28;19933;-55
2022/10/01 04:21:38;;;;;;;;;;;;;;;19.29;50.07;99896.16;5024006;28;19913;-55
2022/10/01 04:24:04;;;;;;;;;;;;;;;19.29;49.80;99893.47;5023650;28;19972;-54
2022/10/01 04:26:29;;;;;;;;;;;;;;;19.28;49.92;99899.88;5023928;28;19970;-55
2022/10/01 04:28:54;;;;;;;;;;;;;;;19.28;49.94;99899.88;5023442;28;19909;-55
2022/10/01 04:31:25;;;;;;;;;;;;;;;19.27;50.00;99896.34;5022390;28;19920;-54
2022/10/01 04:33:54;;;;;;;;;;;;;;;19.27;49.88;99898.22;5027311;28;20552;-51
2022/10/01 04:36:19;;;;;;;;;;;;;;;19.26;50.09;99913.56;5006199;28;20019;-55
2022/10/01 04:38:44;;;;;;;;;;;;;;;19.26;50.11;99915.41;5007887;28;19913;-54
2022/10/01 04:41:10;;;;;;;;;;;;;;;19.26;50.04;99899.25;5026514;28;20293;-55
2022/10/01 04:43:35;;;;;;;;;;;;;;;19.26;49.84;99910.84;5027335;28;19909;-51
2022/10/01 04:46:00;;;;;;;;;;;;;;;19.25;49.86;99898.41;5006726;28;19932;-54
2022/10/01 04:48:25;;;;;;;;;;;;;;;19.24;50.04;99904.81;5018219;28;19984;-54
2022/10/01 04:50:50;;;;;;;;;;;;;;;19.24;50.06;99915.59;5026555;28;19913;-54
2022/10/01 04:53:16;;;;;;;;;;;;;;;19.25;50.03;99906.50;5027257;28;19913;-54
2022/10/01 04:55:41;;;;;;;;;;;;;;;19.23;50.07;99914.75;5026708;28;19910;-53
2022/10/01 04:58:06;;;;;;;;;;;;;;;19.25;50.15;99929.94;5029662;28;19921;-52
2022/10/01 05:00:31;;;;;;;;;;;;;;;19.23;50.18;99914.75;5025862;28;19913;-52
2022/10/01 05:02:57;;;;;;;;;;;;;;;19.23;50.10;99932.78;5026155;28;20000;-53
2022/10/01 05:05:23;;;;;;;;;;;;;;;19.23;50.14;99930.94;5024940;28;19914;-55
2022/10/01 05:07:48;;;;;;;;;;;;;;;19.23;50.11;99935.50;5023798;28;20427;-53
2022/10/01 05:10:15;;;;;;;;;;;;;;;19.23;50.42;99939.03;5026621;28;19973;-51
2022/10/01 05:12:40;;;;;;;;;;;;;;;19.22;50.34;99947.31;5025950;28;20321;-54
2022/10/01 05:15:06;;;;;;;;;;;;;;;19.23;50.23;99949.78;5025482;28;19928;-54
2022/10/01 05:17:32;;;;;;;;;;;;;;;19.22;50.58;99945.44;5026128;28;19936;-51
2022/10/01 05:19:58;;;;;;;;;;;;;;;19.23;50.58;99954.34;5025684;28;19909;-54
2022/10/01 05:22:23;;;;;;;;;;;;;;;19.25;50.59;99951.50;5024501;28;19931;-53
2022/10/01 05:24:48;;;;;;;;;;;;;;;19.25;50.57;99954.19;5025730;28;19932;-53
2022/10/01 05:27:13;;;;;;;;;;;;;;;19.25;50.41;99957.72;5025843;28;19909;-54
2022/10/01 05:29:41;;;;;;;;;;;;;;;19.25;50.47;99949.63;5025422;28;19917;-51
2022/10/01 05:32:07;;;;;;;;;;;;;;;19.25;50.49;99960.41;5025419;28;20664;-55
2022/10/01 05:34:32;;;;;;;;;;;;;;;19.25;50.76;99971.19;5025430;28;19909;-54
2022/10/01 05:36:57;;;;;;;;;;;;;;;19.25;50.89;99968.50;5024210;28;19925;-53
2022/10/01 05:39:22;;;;;;;;;;;;;;;19.23;50.70;99968.66;5024888;28;20401;-52
2022/10/01 05:41:48;;;;;;;;;;;;;;;19.25;50.80;99971.19;5024811;28;19909;-53
2022/10/01 05:44:13;;;;;;;;;;;;;;;19.24;50.68;99974.88;5024381;28;19916;-53
2022/10/01 05:46:38;;;;;;;;;;;;;;;19.23;51.02;99975.91;5006683;28;19945;-53
2022/10/01 05:49:03;;;;;;;;;;;;;;;19.22;51.09;99975.09;5015558;28;20008;-50
2022/10/01 05:51:29;;;;;;;;;;;;;;;19.21;50.88;99981.50;5001396;28;19910;-55
2022/10/01 05:53:54;;;;;;;;;;;;;;;19.22;51.19;99979.66;5020168;28;20009;-58
2022/10/01 05:56:19;;;;;;;;;;;;;;;19.21;51.26;99986.91;5022742;28;19913;-59
2022/10/01 05:58:45;;;;;;;;;;;;;;;19.22;51.48;99993.13;5023945;28;19913;-60
2022/10/01 06:01:11;;;;;;;;;;;;;;;19.21;51.43;99986.91;5023459;28;19920;-60
2022/10/01 06:03:37;;;;;;;;;;;;;;;19.21;51.37;100002.25;5022028;28;19917;-54
2022/10/01 06:06:04;;;;;;;;;;;;;;;19.22;51.62;100001.19;5023736;28;19941;-54
2022/10/01 06:08:29;;;;;;;;;;;;;;;19.21;51.51;100008.47;5023592;28;19928;-54
2022/10/01 06:10:57;;;;;;;;;;;;;;;19.22;51.61;100001.19;5024468;28;19960;-57
2022/10/01 06:13:22;;;;;;;;;;;;;;;19.22;51.54;100004.72;5023711;28;19961;-53
2022/10/01 06:15:48;;;;;;;;;;;;;;;19.23;51.40;99997.47;5023611;28;19909;-56
2022/10/01 06:18:13;;;;;;;;;;;;;;;19.23;51.50;100013.63;5006655;28;20486;-54
2022/10/01 06:20:39;;;;;;;;;;;;;;;19.23;51.51;100005.56;5015544;28;19909;-55
2022/10/01 06:23:06;;;;;;;;;;;;;;;19.25;51.29;100005.38;5024529;28;19913;-56
2022/10/01 06:25:31;;;;;;;;;;;;;;;19.24;51.47;100015.31;5024370;28;19914;-55
2022/10/01 06:27:57;;;;;;;;;;;;;;;19.25;51.42;100011.59;5023881;28;19924;-54
2022/10/01 06:30:27;;;;;;;;;;;;;;;19.26;51.21;100009.75;5023680;28;20391;-55
2022/10/01 06:33:13;;;;;;;;;;;;;;;19.25;51.26;100014.31;5024350;28;19917;-54
2022/10/01 06:35:39;;;;;;;;;;;;;;;19.26;51.28;100017.81;4979993;28;1026541;-54
2022/10/01 06:38:05;;;;;;;;;;;;;;;19.26;51.40;100020.53;5024987;28;19917;-56
2022/10/01 06:40:30;;;;;;;;;;;;;;;19.26;51.47;100023.22;5025241;28;20305;-53
2022/10/01 06:42:57;;;;;;;;;;;;;;;19.25;51.22;100022.38;5024917;28;19913;-55
2022/10/01 06:45:22;;;;;;;;;;;;;;;19.25;51.19;100017.00;5024352;28;19913;-56
2022/10/01 06:47:52;;;;;;;;;;;;;;;19.25;51.25;100025.09;5024778;28;19917;-55
2022/10/01 06:50:17;;;;;;;;;;;;;;;19.26;51.42;100017.81;5023628;28;19913;-53
2022/10/01 06:52:48;;;;;;;;;;;;;;;19.25;51.23;100017.00;5024430;28;20384;-55
2022/10/01 06:55:34;;;;;;;;;;;;;;;19.26;51.20;100024.03;5024557;28;19909;-55
2022/10/01 06:58:06;;;;;;;;;;;;;;;19.26;51.19;100032.13;5023369;28;19959;-56
2022/10/01 07:00:32;;;;;;;;;;;;;;;19.26;51.00;100025.91;5021134;28;19917;-56
2022/10/01 07:02:58;;;;;;;;;;;;;;;19.27;51.08;100039.19;5024226;28;20008;-54
2022/10/01 07:05:24;;;;;;;;;;;;;;;19.27;51.07;100038.34;5023648;28;20780;-53
2022/10/01 07:07:49;;;;;;;;;;;;;;;19.26;51.14;100040.22;5024528;28;19925;-56
2022/10/01 07:10:15;;;;;;;;;;;;;;;19.27;50.95;100038.34;5024720;28;19909;-56
2022/10/01 07:12:40;;;;;;;;;;;;;;;19.27;51.09;100047.28;5023930;28;19916;-56
2022/10/01 07:15:06;;;;;;;;;;;;;;;19.28;51.11;100054.31;4994051;28;20561;-55
2022/10/01 07:17:31;;;;;;;;;;;;;;;19.29;51.00;100063.28;5024341;28;19928;-54
2022/10/01 07:19:57;;;;;;;;;;;;;;;19.29;51.19;100056.00;5023265;28;19909;-55
2022/10/01 07:22:23;;;;;;;;;;;;;;;19.30;50.94;100056.84;5024162;28;19964;-52
2022/10/01 07:24:49;;;;;;;;;;;;;;;19.31;50.84;100061.19;5023669;28;19920;-52
2022/10/01 07:27:14;;;;;;;;;;;;;;;19.31;51.00;100059.34;5024205;28;19913;-54
2022/10/01 07:29:40;;;;;;;;;;;;;;;19.31;50.98;100056.63;5024125;28;19973;-55
2022/10/01 07:32:07;;;;;;;;;;;;;;;19.33;50.98;100061.84;5024340;28;19910;-54
2022/10/01 07:34:33;;;;;;;;;;;;;;;19.34;51.03;100066.22;5023998;28;19909;-55
2022/10/01 07:36:58;;;;;;;;;;;;;;;19.35;50.71;100062.50;5024114;28;19924;-56
2022/10/01 07:39:23;;;;;;;;;;;;;;;19.36;50.82;100072.25;5023999;28;19913;-56
2022/10/01 07:41:50;;;;;;;;;;;;;;;19.37;50.86;100076.59;5024302;28;19910;-56
2022/10/01 07:44:15;;;;;;;;;;;;;;;19.37;50.76;100077.44;5023948;28;19964;-55
2022/10/01 07:46:40;;;;;;;;;;;;;;;19.38;50.49;100081.81;5023627;28;19924;-56
2022/10/01 07:49:07;;;;;;;;;;;;;;;19.40;50.62;100078.91;5023972;28;19917;-56
2022/10/01 07:51:32;;;;;;;;;;;;;;;19.41;50.66;100084.13;5024020;28;20352;-54
2022/10/01 07:53:58;;;;;;;;;;;;;;;19.42;50.71;100096.56;5023755;28;19949;-55
2022/10/01 07:56:23;;;;;;;;;;;;;;;19.44;50.72;100099.06;5023655;28;19913;-55
2022/10/01 07:58:49;;;;;;;;;;;;;;;19.44;50.48;100097.19;5023471;28;19972;-55
2022/10/01 08:01:15;;;;;;;;;;;;;;;19.46;50.60;100107.81;5023763;28;19932;-55
2022/10/01 08:03:41;;;;;;;;;;;;;;;19.47;50.59;100107.63;5024030;28;19910;-56
2022/10/01 08:06:06;;;;;;;;;;;;;;;19.47;50.56;100110.31;5026734;28;20413;-54
2022/10/01 08:08:31;;;;;;;;;;;;;;;19.49;50.38;100116.31;5028169;28;19909;-56
2022/10/01 08:10:56;;;;;;;;;;;;;;;19.52;50.57;100117.81;5027816;28;19913;-54
2022/10/01 08:13:23;;;;;;;;;;;;;;;19.53;50.41;100115.94;5027705;28;20503;-54
2022/10/01 08:15:52;;;;;;;;;;;;;;;19.55;50.29;100112.06;5027069;28;19913;-54
2022/10/01 08:18:17;;;;;;;;;;;;;;;19.57;50.26;100115.38;5027832;28;19917;-55
2022/10/01 08:20:43;;;;;;;;;;;;;;;19.59;50.17;100116.03;5027578;28;19913;-55
2022/10/01 08:23:09;;;;;;;;;;;;;;;19.60;50.34;100117.69;5028029;28;20342;-54
2022/10/01 08:25:34;;;;;;;;;;;;;;;19.61;50.20;100122.09;5027183;28;19925;-56
2022/10/01 08:28:00;;;;;;;;;;;;;;;19.63;50.12;100124.63;5027387;28;19909;-56
2022/10/01 08:30:25;;;;;;;;;;;;;;;19.64;49.95;100137.06;5026927;28;19909;-56
2022/10/01 08:32:54;;;;;;;;;;;;;;;19.66;49.79;100132.28;5027626;28;19921;-55
2022/10/01 08:35:20;;;;;;;;;;;;;;;19.67;49.86;100139.38;5027195;28;20293;-56
2022/10/01 08:37:45;;;;;;;;;;;;;;;19.70;49.88;100136.28;5027420;28;19961;-56
2022/10/01 08:40:10;;;;;;;;;;;;;;;19.73;49.70;100139.44;5027425;28;20270;-53
2022/10/01 08:42:44;;;;;;;;;;;;;;;19.78;50.04;100144.25;5027675;28;20376;-56
2022/10/01 08:45:18;;;;;;;;;;;;;;;19.83;49.62;100140.97;5026302;28;19920;-55
2022/10/01 08:47:45;;;;;;;;;;;;;;;19.87;49.78;100147.66;5027221;28;19909;-56
2022/10/01 08:50:13;;;;;;;;;;;;;;;19.91;49.57;100144.38;5027281;28;19916;-56
2022/10/01 08:52:40;;;;;;;;;;;;;;;19.94;49.31;100140.47;5027316;28;19937;-55
2022/10/01 08:55:08;;;;;;;;;;;;;;;19.97;49.26;100151.69;5026808;28;19945;-57
2022/10/01 08:57:40;;;;;;;;;;;;;;;20.01;49.19;100160.25;5009416;28;19913;-56
2022/10/01 09:00:09;;;;;;;;;;;;;;;20.04;49.15;100153.59;5009016;28;19909;-51
2022/10/01 09:02:36;;;;;;;;;;;;;;;20.08;48.94;100160.28;5009504;28;19916;-56
2022/10/01 09:05:03;;;;;;;;;;;;;;;20.12;48.94;100158.88;5009056;28;19932;-56
2022/10/01 09:07:32;;;;;;;;;;;;;;;20.15;49.11;100163.88;5006047;28;20306;-55
2022/10/01 09:10:16;;;;;;;;;;;;;;;20.18;48.98;100168.91;5005895;28;19909;-55
2022/10/01 09:12:41;;;;;;;;;;;;;;;20.18;48.97;100175.13;5007584;28;19956;-55
2022/10/01 09:15:13;;;;;;;;;;;;;;;20.17;48.57;100178.00;5025612;28;19921;-56
2022/10/01 09:17:43;;;;;;;;;;;;;;;20.15;48.63;100190.88;5026488;28;19913;-53
2022/10/01 09:20:11;;;;;;;;;;;;;;;20.13;48.99;100182.97;5009039;28;19980;-56
2022/10/01 09:22:40;;;;;;;;;;;;;;;20.10;48.96;100212.22;5026904;28;19913;-56
2022/10/01 09:25:05;;;;;;;;;;;;;;;20.08;48.76;100198.06;5026216;28;19949;-56
2022/10/01 09:27:31;;;;;;;;;;;;;;;20.04;48.88;100208.41;5008862;28;19916;-56
2022/10/01 09:30:03;;;;;;;;;;;;;;;20.03;48.91;100206.75;5008544;28;20003;-56
2022/10/01 09:32:34;;;;;;;;;;;;;;;20.01;48.83;100199.84;5026499;28;19905;-56
2022/10/01 09:35:04;;;;;;;;;;;;;;;20.01;49.08;100202.56;5026181;28;19916;-55
2022/10/01 09:37:43;;;;;;;;;;;;;;;20.01;48.98;100203.41;5009523;28;19917;-54
2022/10/01 09:40:14;;;;;;;;;;;;;;;20.03;49.23;100200.53;5008768;28;19937;-56
2022/10/01 09:42:40;;;;;;;;;;;;;;;20.05;48.92;100210.09;5008920;28;19909;-56
2022/10/01 09:45:05;;;;;;;;;;;;;;;20.07;48.87;100210.72;5007826;28;19920;-53
2022/10/01 09:47:31;;;;;;;;;;;;;;;20.11;48.73;100212.03;5008564;28;19909;-56
2022/10/01 09:49:56;;;;;;;;;;;;;;;20.14;48.94;100216.22;5025858;28;19920;-56
2022/10/01 09:52:27;;;;;;;;;;;;;;;20.16;48.53;100225.75;5008891;28;20003;-56
2022/10/01 09:54:56;;;;;;;;;;;;;;;20.16;49.02;100217.66;5025331;28;19913;-56
2022/10/01 09:57:32;;;;;;;;;;;;;;;20.17;48.90;100226.59;5008024;28;19932;-56
2022/10/01 10:00:04;;;;;;;;;;;;;;;20.16;48.79;100225.75;5022613;28;19917;-56
2022/10/01 10:02:30;;;;;;;;;;;;;;;20.15;48.89;100224.09;5025582;28;19910;-55
2022/10/01 10:05:03;;;;;;;;;;;;;;;20.16;49.05;100222.22;5022429;28;19910;-54
2022/10/01 10:07:28;;;;;;;;;;;;;;;20.16;48.85;100228.47;5025336;28;19909;-57
2022/10/01 10:09:53;;;;;;;;;;;;;;;20.17;49.02;100226.59;5025309;28;19996;-56
2022/10/01 10:12:24;;;;;;;;;;;;;;;20.16;48.70;100228.47;5007820;28;19993;-57
2022/10/01 10:14:49;;;;;;;;;;;;;;;20.15;48.71;100224.09;5022903;28;19917;-57
2022/10/01 10:17:17;;;;;;;;;;;;;;;20.16;48.86;100233.03;5025014;28;19921;-56
2022/10/01 10:19:48;;;;;;;;;;;;;;;20.19;48.83;100238.03;5007832;28;19909;-57
2022/10/01 10:22:22;;;;;;;;;;;;;;;20.20;48.83;100232.44;5007853;28;19916;-56
2022/10/01 10:24:47;;;;;;;;;;;;;;;20.23;49.04;100231.22;5024858;28;20020;-54
2022/10/01 10:27:20;;;;;;;;;;;;;;;20.23;48.74;100231.22;5024148;28;19913;-55
2022/10/01 10:29:45;;;;;;;;;;;;;;;20.22;48.94;100235.81;5024784;28;19913;-54
2022/10/01 10:32:14;;;;;;;;;;;;;;;20.21;49.11;100242.19;5024716;28;19918;-53
2022/10/01 10:34:41;;;;;;;;;;;;;;;20.22;49.00;100253.88;5022172;28;19909;-54
2022/10/01 10:37:17;;;;;;;;;;;;;;;20.23;49.08;100256.34;5007144;28;20134;-56
2022/10/01 10:39:45;;;;;;;;;;;;;;;20.25;48.93;100258.03;4995779;28;20035;-57
2022/10/01 10:42:13;;;;;;;;;;;;;;;20.22;49.23;100254.69;5021671;28;19913;-59
2022/10/01 10:44:40;;;;;;;;;;;;;;;20.23;49.14;100260.94;5023705;28;20468;-58
2022/10/01 10:47:07;;;;;;;;;;;;;;;20.23;49.35;100263.63;4991193;28;19918;-59
2022/10/01 10:49:32;;;;;;;;;;;;;;;20.24;49.43;100268.00;5019059;28;19910;-58
2022/10/01 10:51:59;;;;;;;;;;;;;;;20.23;49.25;100259.06;5022471;28;19909;-59
2022/10/01 10:54:36;;;;;;;;;;;;;;;20.22;49.38;100267.34;5024686;28;19917;-57
2022/10/01 10:57:19;;;;;;;;;;;;;;;20.22;49.45;100272.75;5024615;28;19913;-59
2022/10/01 10:59:53;;;;;;;;;;;;;;;20.21;49.71;100274.59;5022990;28;19964;-54
2022/10/01 11:02:20;;;;;;;;;;;;;;;20.21;49.71;100277.28;5023837;28;19909;-54
2022/10/01 11:04:45;;;;;;;;;;;;;;;20.21;49.65;100276.47;5005604;28;19964;-54
2022/10/01 11:07:12;;;;;;;;;;;;;;;20.21;49.82;100274.59;5023191;28;19914;-54
2022/10/01 11:09:42;;;;;;;;;;;;;;;20.23;49.67;100287.91;5004062;28;20357;-53
2022/10/01 11:12:10;;;;;;;;;;;;;;;20.24;49.92;100294.97;5022172;28;19924;-56
2022/10/01 11:14:38;;;;;;;;;;;;;;;20.27;49.75;100288.38;5028277;28;19945;-56
2022/10/01 11:17:18;;;;;;;;;;;;;;;20.28;50.07;100298.97;5023230;28;19940;-56
2022/10/01 11:19:48;;;;;;;;;;;;;;;20.29;49.93;100303.34;5023655;28;19917;-54
2022/10/01 11:22:20;;;;;;;;;;;;;;;20.29;50.46;100306.03;5006343;28;19914;-55
2022/10/01 11:24:56;;;;;;;;;;;;;;;20.29;50.69;100311.44;5005113;28;19913;-56
2022/10/01 11:27:25;;;;;;;;;;;;;;;20.29;50.92;100310.59;5005658;28;19913;-53
2022/10/01 11:30:09;;;;;;;;;;;;;;;20.29;51.02;100324.09;5023714;28;19909;-56
2022/10/01 11:32:38;;;;;;;;;;;;;;;20.28;51.12;100335.94;5023850;28;19967;-54
2022/10/01 11:35:17;;;;;;;;;;;;;;;20.28;51.03;100335.94;5005719;28;19913;-54
2022/10/01 11:38:01;;;;;;;;;;;;;;;20.27;51.24;100342.38;5006276;28;20378;-54
2022/10/01 11:40:38;;;;;;;;;;;;;;;20.27;51.18;100348.59;5023055;28;20498;-56
2022/10/01 11:43:23;;;;;;;;;;;;;;;20.26;51.20;100346.06;5001673;28;19920;-57
2022/10/01 11:45:51;;;;;;;;;;;;;;;20.25;51.37;100347.09;5011279;28;19925;-56
2022/10/01 11:48:18;;;;;;;;;;;;;;;20.25;51.23;100358.72;5023183;28;20508;-56
2022/10/01 11:50:45;;;;;;;;;;;;;;;20.27;51.40;100350.47;5022831;28;20059;-56
2022/10/01 11:53:21;;;;;;;;;;;;;;;20.28;51.74;100355.66;5023308;28;20381;-56
2022/10/01 11:58:53;;;;;;;;;;;;;;;20.37;51.65;100353.69;5006807;28;20081;-56
2022/10/01 12:01:18;;;;;;;;;;;;;;;20.42;51.47;100364.72;4989913;28;20400;-55
2022/10/01 12:04:04;;;;;;;;;;;;;;;20.47;51.46;100359.59;5023391;28;19913;-54
2022/10/01 12:06:35;;;;;;;;;;;;;;;20.51;51.48;100378.97;4991252;28;19944;-57
2022/10/01 12:09:15;;;;;;;;;;;;;;;20.56;51.76;100372.00;5022810;28;19941;-56
2022/10/01 12:11:51;;;;;;;;;;;;;;;20.59;51.61;100395.06;5001254;28;20346;-55
2022/10/01 12:14:18;;;;;;;;;;;;;;;20.61;51.70;100407.34;5019898;28;20325;-55
2022/10/01 12:16:51;;;;;;;;;;;;;;;20.61;51.58;100418.16;5003363;28;19913;-55
2022/10/01 12:19:20;;;;;;;;;;;;;;;20.64;51.57;100422.31;5020573;28;19909;-57
2022/10/01 12:21:50;;;;;;;;;;;;;;;20.63;51.40;100412.56;5021344;28;19917;-56
2022/10/01 12:24:17;;;;;;;;;;;;;;;20.64;51.74;100411.53;5022873;28;20016;-57
2022/10/01 12:26:58;;;;;;;;;;;;;;;20.63;51.74;100420.66;5003552;28;19999;-54
2022/10/01 12:29:36;;;;;;;;;;;;;;;20.61;51.67;100426.25;5005135;28;19960;-55
2022/10/01 12:32:08;;;;;;;;;;;;;;;20.60;51.74;100426.44;5003137;28;19909;-57
2022/10/01 12:34:43;;;;;;;;;;;;;;;20.58;51.84;100426.63;5020924;28;19910;-52
2022/10/01 12:37:27;;;;;;;;;;;;;;;20.57;51.97;100441.19;5019887;28;19945;-54
2022/10/01 12:40:04;;;;;;;;;;;;;;;20.57;51.82;100422.28;5020153;28;19967;-56
2022/10/01 12:42:30;;;;;;;;;;;;;;;20.57;51.63;100434.94;5022866;28;19909;-55
2022/10/01 12:45:01;;;;;;;;;;;;;;;20.57;51.68;100424.97;5020032;28;19920;-57
2022/10/01 12:47:35;;;;;;;;;;;;;;;20.58;52.12;100442.00;5016333;28;19956;-55